createdAt,value
2023-02-24T00:00:03.551Z,95047
2023-02-24T00:01:13.214Z,95046
2023-02-24T00:02:23.048Z,95050
2023-02-24T00:03:32.810Z,95045
2023-02-24T00:04:42.520Z,95054
2023-02-24T00:05:52.252Z,95054
2023-02-24T00:07:01.994Z,95048
2023-02-24T00:08:09.679Z,95054
2023-02-24T00:09:18.381Z,95050
2023-02-24T00:10:28.161Z,95046
2023-02-24T00:11:36.900Z,95046
2023-02-24T00:12:46.562Z,95045
2023-02-24T00:13:55.314Z,95042
2023-02-24T00:15:04.056Z,95046
2023-02-24T00:16:14.040Z,95044
2023-02-24T00:17:22.687Z,95040
2023-02-24T00:18:32.372Z,95036
2023-02-24T00:19:42.195Z,95034
2023-02-24T00:20:51.890Z,95030
2023-02-24T00:22:01.645Z,95032
2023-02-24T00:23:09.333Z,95030
2023-02-24T00:24:18.090Z,95029
2023-02-24T00:25:27.814Z,95030
2023-02-24T00:26:35.502Z,95026
2023-02-24T00:27:45.357Z,95021
2023-02-24T00:28:54.114Z,95023
2023-02-24T00:30:02.915Z,95024
2023-02-24T00:31:12.794Z,95023
2023-02-24T00:32:22.646Z,95022
2023-02-24T00:33:32.196Z,95017
2023-02-24T00:34:41.916Z,95020
2023-02-24T00:35:50.688Z,95017
2023-02-24T00:37:00.532Z,95013
2023-02-24T00:38:09.224Z,95017
2023-02-24T00:39:18.930Z,95014
2023-02-24T00:40:28.751Z,95013
2023-02-24T00:41:37.498Z,95015
2023-02-24T00:42:47.260Z,95015
2023-02-24T00:43:56.995Z,95019
2023-02-24T00:45:05.748Z,95017
2023-02-24T00:46:15.542Z,95014
2023-02-24T00:47:24.263Z,95017
2023-02-24T00:48:33.921Z,95015
2023-02-24T00:49:43.654Z,95012
2023-02-24T00:50:53.330Z,95010
2023-02-24T00:52:03.135Z,95013
2023-02-24T00:53:12.868Z,95012
2023-02-24T00:54:22.601Z,95011
2023-02-24T00:55:31.281Z,95009
2023-02-24T00:56:39.992Z,95010
2023-02-24T00:57:49.724Z,95012
2023-02-24T00:58:59.435Z,95013
2023-02-24T01:00:07.117Z,95006
2023-02-24T01:01:15.899Z,95009
2023-02-24T01:02:25.746Z,95006
2023-02-24T01:03:34.451Z,95006
2023-02-24T01:04:44.114Z,95005
2023-02-24T01:05:52.835Z,94998
2023-02-24T01:07:02.623Z,95000
2023-02-24T01:08:11.354Z,94997
2023-02-24T01:09:20.067Z,94994
2023-02-24T01:10:29.781Z,94995
2023-02-24T01:11:38.541Z,94990
2023-02-24T01:12:48.331Z,94989
2023-02-24T01:13:57.964Z,94986
2023-02-24T01:15:07.665Z,94984
2023-02-24T01:16:17.445Z,94987
2023-02-24T01:17:27.098Z,94987
2023-02-24T01:18:36.795Z,94988
2023-02-24T01:19:46.463Z,94984
2023-02-24T01:20:56.171Z,94984
2023-02-24T01:22:05.865Z,94985
2023-02-24T01:23:15.637Z,94985
2023-02-24T01:24:26.313Z,94982
2023-02-24T01:25:35.022Z,94984
2023-02-24T01:26:45.711Z,94981
2023-02-24T01:27:55.411Z,94979
2023-02-24T01:29:05.102Z,94982
2023-02-24T01:30:14.803Z,94975
2023-02-24T01:31:24.938Z,94972
2023-02-24T01:32:34.357Z,94970
2023-02-24T01:33:43.018Z,94975
2023-02-24T01:34:51.649Z,94968
2023-02-24T01:36:01.330Z,94969
2023-02-24T01:37:10.078Z,94968
2023-02-24T01:38:19.729Z,94965
2023-02-24T01:39:28.422Z,94971
2023-02-24T01:40:38.124Z,94974
2023-02-24T01:41:47.829Z,94972
2023-02-24T01:42:55.560Z,94974
2023-02-24T01:44:05.314Z,94972
2023-02-24T01:45:15.081Z,94972
2023-02-24T01:46:23.870Z,94972
2023-02-24T01:47:33.544Z,94973
2023-02-24T01:48:41.215Z,94972
2023-02-24T01:49:49.989Z,94970
2023-02-24T01:50:59.651Z,94974
2023-02-24T01:52:08.371Z,94969
2023-02-24T01:53:17.103Z,94971
2023-02-24T01:54:26.857Z,94968
2023-02-24T01:55:35.532Z,94969
2023-02-24T01:56:45.257Z,94969
2023-02-24T01:57:52.990Z,94970
2023-02-24T01:59:01.667Z,94965
2023-02-24T02:00:11.504Z,94963
2023-02-24T02:01:19.625Z,94962
2023-02-24T02:02:29.296Z,94961
2023-02-24T02:03:38.086Z,94957
2023-02-24T02:04:46.811Z,94959
2023-02-24T02:05:57.592Z,94952
2023-02-24T02:07:07.286Z,94953
2023-02-24T02:08:17.017Z,94949
2023-02-24T02:09:26.719Z,94942
2023-02-24T02:10:36.388Z,94940
2023-02-24T02:11:46.126Z,94934
2023-02-24T02:12:55.829Z,94931
2023-02-24T02:14:04.879Z,94929
2023-02-24T02:15:14.571Z,94929
2023-02-24T02:16:22.296Z,94931
2023-02-24T02:17:31.994Z,94928
2023-02-24T02:18:41.727Z,94928
2023-02-24T02:19:50.454Z,94924
2023-02-24T02:21:00.210Z,94927
2023-02-24T02:22:08.940Z,94929
2023-02-24T02:23:17.681Z,94923
2023-02-24T02:24:27.397Z,94927
2023-02-24T02:25:35.093Z,94926
2023-02-24T02:26:44.784Z,94929
2023-02-24T02:27:54.499Z,94927
2023-02-24T02:29:02.288Z,94926
2023-02-24T02:30:11.039Z,94929
2023-02-24T02:31:21.200Z,94927
2023-02-24T02:32:29.627Z,94925
2023-02-24T02:33:39.242Z,94925
2023-02-24T02:34:49.133Z,94927
2023-02-24T02:36:01.016Z,94927
2023-02-24T02:37:10.717Z,94925
2023-02-24T02:38:20.479Z,94929
2023-02-24T02:39:30.145Z,94924
2023-02-24T02:40:38.860Z,94925
2023-02-24T02:41:47.565Z,94927
2023-02-24T02:42:56.278Z,94925
2023-02-24T02:44:06.210Z,94927
2023-02-24T02:45:15.953Z,94926
2023-02-24T02:46:25.656Z,94927
2023-02-24T02:47:33.387Z,94930
2023-02-24T02:48:42.160Z,94929
2023-02-24T02:49:50.913Z,94928
2023-02-24T02:51:00.719Z,94929
2023-02-24T02:52:10.396Z,94932
2023-02-24T02:53:20.264Z,94927
2023-02-24T02:54:29.015Z,94927
2023-02-24T02:55:38.663Z,94930
2023-02-24T02:56:47.369Z,94927
2023-02-24T02:58:03.102Z,94927
2023-02-24T02:59:12.857Z,94925
2023-02-24T03:00:21.573Z,94930
2023-02-24T03:01:31.230Z,94923
2023-02-24T03:02:39.900Z,94925
2023-02-24T03:03:49.633Z,94924
2023-02-24T03:04:58.434Z,94923
2023-02-24T03:06:08.113Z,94920
2023-02-24T03:07:17.871Z,94921
2023-02-24T03:08:27.535Z,94918
2023-02-24T03:09:37.240Z,94919
2023-02-24T03:10:45.931Z,94915
2023-02-24T03:11:54.666Z,94916
2023-02-24T03:13:04.372Z,94916
2023-02-24T03:14:13.085Z,94913
2023-02-24T03:15:22.820Z,94913
2023-02-24T03:16:32.552Z,94915
2023-02-24T03:17:41.279Z,94918
2023-02-24T03:18:51.082Z,94916
2023-02-24T03:20:00.745Z,94919
2023-02-24T03:21:10.432Z,94920
2023-02-24T03:22:20.176Z,94921
2023-02-24T03:23:29.867Z,94924
2023-02-24T03:24:38.649Z,94923
2023-02-24T03:25:48.351Z,94930
2023-02-24T03:26:57.071Z,94923
2023-02-24T03:28:05.769Z,94924
2023-02-24T03:29:14.586Z,94922
2023-02-24T03:30:23.319Z,94920
2023-02-24T03:31:33.136Z,94918
2023-02-24T03:32:41.906Z,94918
2023-02-24T03:33:52.508Z,94917
2023-02-24T03:35:02.245Z,94912
2023-02-24T03:36:10.917Z,94910
2023-02-24T03:37:19.608Z,94913
2023-02-24T03:38:29.299Z,94914
2023-02-24T03:39:39.028Z,94914
2023-02-24T03:40:48.747Z,94912
2023-02-24T03:41:57.448Z,94914
2023-02-24T03:43:06.146Z,94910
2023-02-24T03:44:16.866Z,94910
2023-02-24T03:45:25.556Z,94913
2023-02-24T03:46:34.277Z,94906
2023-02-24T03:47:43.952Z,94909
2023-02-24T03:48:52.655Z,94914
2023-02-24T03:50:02.470Z,94913
2023-02-24T03:51:12.236Z,94912
2023-02-24T03:52:21.925Z,94911
2023-02-24T03:53:31.600Z,94911
2023-02-24T03:54:41.297Z,94907
2023-02-24T03:55:50.998Z,94905
2023-02-24T03:57:00.656Z,94907
2023-02-24T03:58:09.323Z,94907
2023-02-24T03:59:19.003Z,94909
2023-02-24T04:00:28.733Z,94905
2023-02-24T04:01:38.413Z,94904
2023-02-24T04:02:48.164Z,94899
2023-02-24T04:03:57.814Z,94900
2023-02-24T04:05:06.669Z,94899
2023-02-24T04:06:16.290Z,94892
2023-02-24T04:07:25.964Z,94884
2023-02-24T04:08:35.726Z,94888
2023-02-24T04:09:44.503Z,94884
2023-02-24T04:10:54.182Z,94883
2023-02-24T04:12:03.881Z,94886
2023-02-24T04:13:12.580Z,94882
2023-02-24T04:14:21.289Z,94879
2023-02-24T04:15:31.073Z,94879
2023-02-24T04:16:40.775Z,94878
2023-02-24T04:17:50.505Z,94876
2023-02-24T04:19:00.215Z,94874
2023-02-24T04:20:09.005Z,94875
2023-02-24T04:21:19.193Z,94878
2023-02-24T04:22:28.550Z,94872
2023-02-24T04:23:38.339Z,94870
2023-02-24T04:24:47.061Z,94870
2023-02-24T04:25:56.925Z,94868
2023-02-24T04:27:06.647Z,94870
2023-02-24T04:28:15.285Z,94874
2023-02-24T04:29:24.971Z,94876
2023-02-24T04:30:34.772Z,94871
2023-02-24T04:31:42.721Z,94870
2023-02-24T04:32:52.354Z,94869
2023-02-24T04:34:01.953Z,94871
2023-02-24T04:35:10.665Z,94868
2023-02-24T04:36:21.373Z,94869
2023-02-24T04:37:30.058Z,94866
2023-02-24T04:38:39.713Z,94866
2023-02-24T04:39:49.450Z,94865
2023-02-24T04:40:59.182Z,94862
2023-02-24T04:42:08.870Z,94863
2023-02-24T04:43:18.602Z,94861
2023-02-24T04:44:28.320Z,94857
2023-02-24T04:45:38.025Z,94854
2023-02-24T04:46:46.931Z,94853
2023-02-24T04:47:56.490Z,94853
2023-02-24T04:49:06.145Z,94853
2023-02-24T04:50:14.865Z,94846
2023-02-24T04:51:23.759Z,94852
2023-02-24T04:52:33.255Z,94851
2023-02-24T04:53:42.947Z,94851
2023-02-24T04:54:52.698Z,94847
2023-02-24T04:56:00.471Z,94842
2023-02-24T04:57:09.167Z,94838
2023-02-24T04:58:18.860Z,94837
2023-02-24T04:59:27.539Z,94840
2023-02-24T05:00:36.253Z,94838
2023-02-24T05:01:44.911Z,94835
2023-02-24T05:02:51.604Z,94837
2023-02-24T05:04:00.426Z,94838
2023-02-24T05:05:08.999Z,94835
2023-02-24T05:06:18.774Z,94831
2023-02-24T05:07:28.523Z,94828
2023-02-24T05:08:45.365Z,94832
2023-02-24T05:09:55.100Z,94827
2023-02-24T05:11:04.856Z,94829
2023-02-24T05:12:14.581Z,94826
2023-02-24T05:13:24.286Z,94823
2023-02-24T05:14:34.130Z,94823
2023-02-24T05:15:43.782Z,94816
2023-02-24T05:16:53.498Z,94817
2023-02-24T05:18:02.210Z,94814
2023-02-24T05:19:11.958Z,94813
2023-02-24T05:20:21.721Z,94807
2023-02-24T05:21:31.608Z,94809
2023-02-24T05:22:41.340Z,94810
2023-02-24T05:23:50.027Z,94804
2023-02-24T05:24:59.753Z,94806
2023-02-24T05:26:09.458Z,94803
2023-02-24T05:27:19.188Z,94805
2023-02-24T05:28:29.853Z,94802
2023-02-24T05:29:37.549Z,94800
2023-02-24T05:30:47.413Z,94795
2023-02-24T05:31:56.122Z,94798
2023-02-24T05:33:05.847Z,94793
2023-02-24T05:34:14.533Z,94788
2023-02-24T05:35:22.383Z,94789
2023-02-24T05:36:32.114Z,94792
2023-02-24T05:37:41.768Z,94789
2023-02-24T05:38:51.417Z,94787
2023-02-24T05:40:01.137Z,94783
2023-02-24T05:41:09.880Z,94784
2023-02-24T05:42:19.572Z,94785
2023-02-24T05:43:29.335Z,94784
2023-02-24T05:44:39.068Z,94782
2023-02-24T05:45:47.763Z,94779
2023-02-24T05:46:57.725Z,94780
2023-02-24T05:48:05.343Z,94780
2023-02-24T05:49:13.036Z,94778
2023-02-24T05:50:21.776Z,94786
2023-02-24T05:51:30.525Z,94787
2023-02-24T05:52:40.229Z,94785
2023-02-24T05:53:48.949Z,94787
2023-02-24T05:54:57.704Z,94786
2023-02-24T05:56:07.443Z,94781
2023-02-24T05:57:16.152Z,94779
2023-02-24T05:58:24.851Z,94781
2023-02-24T05:59:34.594Z,94777
2023-02-24T06:00:44.271Z,94779
2023-02-24T06:01:54.085Z,94782
2023-02-24T06:03:02.706Z,94777
2023-02-24T06:04:11.362Z,94775
2023-02-24T06:05:21.072Z,94776
2023-02-24T06:06:28.791Z,94780
2023-02-24T06:07:38.556Z,94771
2023-02-24T06:08:47.305Z,94776
2023-02-24T06:09:56.003Z,94774
2023-02-24T06:11:05.703Z,94775
2023-02-24T06:12:15.439Z,94774
2023-02-24T06:13:24.218Z,94773
2023-02-24T06:14:33.950Z,94770
2023-02-24T06:15:41.691Z,94773
2023-02-24T06:16:50.477Z,94774
2023-02-24T06:17:59.197Z,94775
2023-02-24T06:19:08.868Z,94781
2023-02-24T06:20:19.544Z,94780
2023-02-24T06:21:28.353Z,94783
2023-02-24T06:22:38.091Z,94783
2023-02-24T06:23:47.806Z,94778
2023-02-24T06:24:57.521Z,94786
2023-02-24T06:26:07.248Z,94784
2023-02-24T06:27:17.012Z,94784
2023-02-24T06:28:26.743Z,94781
2023-02-24T06:29:36.438Z,94780
2023-02-24T06:30:44.184Z,94783
2023-02-24T06:31:54.198Z,94784
2023-02-24T06:33:03.706Z,94780
2023-02-24T06:34:13.422Z,94778
2023-02-24T06:35:23.222Z,94785
2023-02-24T06:36:33.023Z,94781
2023-02-24T06:37:41.737Z,94780
2023-02-24T06:38:51.423Z,94782
2023-02-24T06:39:59.114Z,94781
2023-02-24T06:41:08.800Z,94788
2023-02-24T06:42:18.577Z,94787
2023-02-24T06:43:26.229Z,94794
2023-02-24T06:44:35.907Z,94790
2023-02-24T06:45:45.680Z,94791
2023-02-24T06:46:54.403Z,94789
2023-02-24T06:48:03.205Z,94795
2023-02-24T06:49:11.842Z,94790
2023-02-24T06:50:20.531Z,94792
2023-02-24T06:51:30.406Z,94793
2023-02-24T06:52:37.972Z,94791
2023-02-24T06:53:47.640Z,94789
2023-02-24T06:54:56.325Z,94786
2023-02-24T06:56:05.012Z,94790
2023-02-24T06:57:14.744Z,94794
2023-02-24T06:58:23.409Z,94791
2023-02-24T06:59:32.080Z,94790
2023-02-24T07:00:41.727Z,94790
2023-02-24T07:01:50.438Z,94799
2023-02-24T07:03:00.138Z,94801
2023-02-24T07:04:09.974Z,94802
2023-02-24T07:05:18.587Z,94797
2023-02-24T07:06:27.284Z,94798
2023-02-24T07:07:36.007Z,94795
2023-02-24T07:08:45.697Z,94801
2023-02-24T07:09:53.424Z,94802
2023-02-24T07:11:02.087Z,94798
2023-02-24T07:12:11.808Z,94790
2023-02-24T07:13:21.512Z,94791
2023-02-24T07:14:31.206Z,94790
2023-02-24T07:15:40.930Z,94790
2023-02-24T07:16:49.675Z,94787
2023-02-24T07:17:58.391Z,94782
2023-02-24T07:19:06.077Z,94781
2023-02-24T07:20:14.796Z,94785
2023-02-24T07:21:24.509Z,94782
2023-02-24T07:22:33.207Z,94784
2023-02-24T07:23:41.886Z,94784
2023-02-24T07:24:51.607Z,94786
2023-02-24T07:26:01.288Z,94785
2023-02-24T07:27:10.992Z,94789
2023-02-24T07:28:19.688Z,94787
2023-02-24T07:29:28.384Z,94788
2023-02-24T07:30:38.205Z,94786
2023-02-24T07:31:45.970Z,94785
2023-02-24T07:32:54.647Z,94787
2023-02-24T07:34:03.350Z,94783
2023-02-24T07:35:12.075Z,94785
2023-02-24T07:36:22.815Z,94780
2023-02-24T07:37:32.535Z,94781
2023-02-24T07:38:42.272Z,94779
2023-02-24T07:39:52.055Z,94778
2023-02-24T07:41:01.765Z,94777
2023-02-24T07:42:10.479Z,94774
2023-02-24T07:43:20.253Z,94776
2023-02-24T07:44:29.987Z,94771
2023-02-24T07:45:39.710Z,94776
2023-02-24T07:46:48.364Z,94773
2023-02-24T07:47:57.077Z,94773
2023-02-24T07:49:06.786Z,94774
2023-02-24T07:50:15.481Z,94770
2023-02-24T07:51:24.163Z,94768
2023-02-24T07:52:33.883Z,94771
2023-02-24T07:53:43.543Z,94771
2023-02-24T07:54:54.253Z,94770
2023-02-24T07:56:02.937Z,94769
2023-02-24T07:57:12.626Z,94763
2023-02-24T07:58:22.368Z,94766
2023-02-24T07:59:32.058Z,94765
2023-02-24T08:00:41.747Z,94767
2023-02-24T08:01:51.496Z,94764
2023-02-24T08:03:01.281Z,94767
2023-02-24T08:04:11.012Z,94764
2023-02-24T08:05:19.734Z,94769
2023-02-24T08:06:29.397Z,94769
2023-02-24T08:07:39.144Z,94767
2023-02-24T08:08:47.946Z,94760
2023-02-24T08:09:57.650Z,94764
2023-02-24T08:11:06.335Z,94759
2023-02-24T08:12:16.011Z,94761
2023-02-24T08:13:25.754Z,94757
2023-02-24T08:14:34.444Z,94753
2023-02-24T08:15:43.236Z,94755
2023-02-24T08:16:52.934Z,94755
2023-02-24T08:18:02.630Z,94750
2023-02-24T08:19:11.432Z,94750
2023-02-24T08:20:21.171Z,94748
2023-02-24T08:21:30.824Z,94751
2023-02-24T08:22:40.531Z,94748
2023-02-24T08:23:49.295Z,94741
2023-02-24T08:24:58.960Z,94745
2023-02-24T08:26:08.783Z,94742
2023-02-24T08:27:18.374Z,94742
2023-02-24T08:28:28.075Z,94739
2023-02-24T08:29:37.778Z,94740
2023-02-24T08:30:47.808Z,94731
2023-02-24T08:31:57.273Z,94731
2023-02-24T08:33:05.921Z,94732
2023-02-24T08:34:14.626Z,94726
2023-02-24T08:35:24.310Z,94728
2023-02-24T08:36:33.007Z,94723
2023-02-24T08:37:42.718Z,94725
2023-02-24T08:38:51.428Z,94725
2023-02-24T08:40:00.168Z,94722
2023-02-24T08:41:08.820Z,94719
2023-02-24T08:42:15.490Z,94718
2023-02-24T08:43:26.208Z,94720
2023-02-24T08:44:34.886Z,94724
2023-02-24T08:45:45.582Z,94718
2023-02-24T08:46:55.316Z,94712
2023-02-24T08:48:04.971Z,94713
2023-02-24T08:49:13.675Z,94710
2023-02-24T08:50:23.413Z,94705
2023-02-24T08:51:31.171Z,94707
2023-02-24T08:52:40.872Z,94707
2023-02-24T08:53:50.617Z,94705
2023-02-24T08:54:59.349Z,94707
2023-02-24T08:56:09.095Z,94705
2023-02-24T08:57:18.796Z,94709
2023-02-24T08:58:27.495Z,94710
2023-02-24T08:59:37.291Z,94710
2023-02-24T09:00:45.961Z,94707
2023-02-24T09:02:04.087Z,94707
2023-02-24T09:03:06.319Z,94709
2023-02-24T09:04:15.061Z,94712
2023-02-24T09:05:24.770Z,94705
2023-02-24T09:06:34.494Z,94706
2023-02-24T09:07:44.248Z,94707
2023-02-24T09:08:53.004Z,94707
2023-02-24T09:10:01.717Z,94707
2023-02-24T09:11:11.451Z,94707
2023-02-24T09:12:21.127Z,94701
2023-02-24T09:13:30.859Z,94695
2023-02-24T09:14:40.644Z,94702
2023-02-24T09:15:50.338Z,94697
2023-02-24T09:16:58.023Z,94695
2023-02-24T09:18:07.813Z,94698
2023-02-24T09:19:16.562Z,94696
2023-02-24T09:20:26.268Z,94698
2023-02-24T09:21:34.960Z,94690
2023-02-24T09:22:43.656Z,94694
2023-02-24T09:23:53.367Z,94693
2023-02-24T09:25:01.106Z,94685
2023-02-24T09:26:10.820Z,94685
2023-02-24T09:27:20.636Z,94689
2023-02-24T09:28:29.339Z,94681
2023-02-24T09:29:39.064Z,94686
2023-02-24T09:30:47.816Z,94684
2023-02-24T09:31:57.731Z,94685
2023-02-24T09:33:07.376Z,94690
2023-02-24T09:34:15.918Z,94683
2023-02-24T09:35:24.627Z,94676
2023-02-24T09:36:34.308Z,94674
2023-02-24T09:37:45.027Z,94666
2023-02-24T09:38:54.798Z,94668
2023-02-24T09:40:02.483Z,94664
2023-02-24T09:41:18.803Z,94671
2023-02-24T09:42:21.850Z,94666
2023-02-24T09:43:31.583Z,94665
2023-02-24T09:44:40.240Z,94666
2023-02-24T09:45:50.057Z,94658
2023-02-24T09:46:59.598Z,94659
2023-02-24T09:48:09.407Z,94659
2023-02-24T09:49:20.108Z,94656
2023-02-24T09:50:55.349Z,94655
2023-02-24T09:51:40.453Z,94657
2023-02-24T09:52:49.180Z,94656
2023-02-24T09:53:59.862Z,94653
2023-02-24T09:55:08.582Z,94649
2023-02-24T09:56:17.245Z,94644
2023-02-24T09:57:26.983Z,94642
2023-02-24T09:58:43.239Z,94644
2023-02-24T09:59:45.810Z,94641
2023-02-24T10:00:54.998Z,94639
2023-02-24T10:02:05.697Z,94639
2023-02-24T10:03:15.385Z,94639
2023-02-24T10:04:25.085Z,94638
2023-02-24T10:05:34.772Z,94635
2023-02-24T10:06:44.516Z,94637
2023-02-24T10:07:53.277Z,94631
2023-02-24T10:09:01.949Z,94635
2023-02-24T10:10:11.718Z,94629
2023-02-24T10:11:19.560Z,94629
2023-02-24T10:12:29.086Z,94627
2023-02-24T10:13:37.867Z,94624
2023-02-24T10:14:51.076Z,94623
2023-02-24T10:15:58.430Z,94625
2023-02-24T10:17:08.898Z,94621
2023-02-24T10:18:18.616Z,94621
2023-02-24T10:19:28.321Z,94620
2023-02-24T10:20:37.091Z,94615
2023-02-24T10:21:46.762Z,94613
2023-02-24T10:22:55.473Z,94614
2023-02-24T10:24:05.155Z,94612
2023-02-24T10:25:21.043Z,94611
2023-02-24T10:26:24.525Z,94608
2023-02-24T10:27:33.206Z,94603
2023-02-24T10:28:42.928Z,94608
2023-02-24T10:29:50.616Z,94611
2023-02-24T10:31:00.442Z,94606
2023-02-24T10:32:09.242Z,94604
2023-02-24T10:33:18.783Z,94601
2023-02-24T10:34:28.507Z,94599
2023-02-24T10:35:36.207Z,94600
2023-02-24T10:36:44.888Z,94601
2023-02-24T10:37:54.610Z,94602
2023-02-24T10:39:03.280Z,94599
2023-02-24T10:40:11.988Z,94596
2023-02-24T10:41:21.046Z,94597
2023-02-24T10:42:30.390Z,94598
2023-02-24T10:43:40.105Z,94595
2023-02-24T10:44:51.116Z,94593
2023-02-24T10:45:57.508Z,94599
2023-02-24T10:47:07.169Z,94595
2023-02-24T10:48:15.871Z,94594
2023-02-24T10:49:25.514Z,94590
2023-02-24T10:50:37.424Z,94593
2023-02-24T10:51:45.947Z,94585
2023-02-24T10:52:55.776Z,94583
2023-02-24T10:54:03.438Z,94585
2023-02-24T10:55:13.114Z,94584
2023-02-24T10:56:23.312Z,94585
2023-02-24T10:57:30.534Z,94579
2023-02-24T10:58:41.342Z,94577
2023-02-24T10:59:50.126Z,94574
2023-02-24T11:00:58.809Z,94576
2023-02-24T11:02:08.462Z,94580
2023-02-24T11:03:28.019Z,94570
2023-02-24T11:04:28.792Z,94572
2023-02-24T11:05:37.515Z,94571
2023-02-24T11:06:47.193Z,94567
2023-02-24T11:07:56.949Z,94564
2023-02-24T11:09:06.641Z,94560
2023-02-24T11:10:16.386Z,94558
2023-02-24T11:11:25.080Z,94559
2023-02-24T11:12:34.791Z,94556
2023-02-24T11:13:44.439Z,94543
2023-02-24T11:14:53.113Z,94550
2023-02-24T11:16:02.915Z,94542
2023-02-24T11:17:12.487Z,94543
2023-02-24T11:18:20.174Z,94540
2023-02-24T11:19:29.842Z,94537
2023-02-24T11:20:48.814Z,94534
2023-02-24T11:21:50.226Z,94534
2023-02-24T11:22:59.928Z,94532
2023-02-24T11:24:09.578Z,94536
2023-02-24T11:25:19.330Z,94531
2023-02-24T11:26:28.980Z,94533
2023-02-24T11:27:37.676Z,94528
2023-02-24T11:28:47.344Z,94522
2023-02-24T11:29:56.027Z,94525
2023-02-24T11:31:04.822Z,94516
2023-02-24T11:32:15.560Z,94516
2023-02-24T11:33:23.158Z,94520
2023-02-24T11:34:32.868Z,94514
2023-02-24T11:35:42.509Z,94521
2023-02-24T11:36:52.186Z,94509
2023-02-24T11:38:00.912Z,94510
2023-02-24T11:39:18.208Z,94508
2023-02-24T11:40:21.250Z,94509
2023-02-24T11:41:30.951Z,94498
2023-02-24T11:42:39.625Z,94498
2023-02-24T11:43:48.351Z,94494
2023-02-24T11:44:58.042Z,94496
2023-02-24T11:46:05.790Z,94490
2023-02-24T11:47:14.469Z,94485
2023-02-24T11:48:24.195Z,94489
2023-02-24T11:49:32.846Z,94485
2023-02-24T11:50:42.514Z,94482
2023-02-24T11:51:51.228Z,94477
2023-02-24T11:53:00.898Z,94474
2023-02-24T11:54:10.602Z,94473
2023-02-24T11:55:19.278Z,94469
2023-02-24T11:56:29.385Z,94468
2023-02-24T11:57:37.711Z,94466
2023-02-24T11:58:47.326Z,94467
2023-02-24T11:59:56.997Z,94467
2023-02-24T12:01:05.729Z,94463
2023-02-24T12:02:15.433Z,94458
2023-02-24T12:03:25.190Z,94456
2023-02-24T12:04:33.845Z,94455
2023-02-24T12:05:43.592Z,94457
2023-02-24T12:06:53.272Z,94453
2023-02-24T12:08:01.963Z,94454
2023-02-24T12:09:11.670Z,94451
2023-02-24T12:10:21.439Z,94447
2023-02-24T12:11:30.052Z,94448
2023-02-24T12:12:39.718Z,94450
2023-02-24T12:13:48.393Z,94447
2023-02-24T12:14:57.065Z,94446
2023-02-24T12:16:06.781Z,94445
2023-02-24T12:17:16.472Z,94441
2023-02-24T12:18:26.538Z,94437
2023-02-24T12:19:34.878Z,94437
2023-02-24T12:20:44.619Z,94438
2023-02-24T12:21:54.373Z,94432
2023-02-24T12:23:02.072Z,94431
2023-02-24T12:24:11.796Z,94431
2023-02-24T12:25:21.512Z,94424
2023-02-24T12:26:30.246Z,94426
2023-02-24T12:27:39.993Z,94431
2023-02-24T12:28:48.702Z,94425
2023-02-24T12:29:57.388Z,94427
2023-02-24T12:31:07.221Z,94428
2023-02-24T12:32:16.082Z,94423
2023-02-24T12:33:25.512Z,94421
2023-02-24T12:34:34.174Z,94416
2023-02-24T12:35:43.890Z,94419
2023-02-24T12:36:53.551Z,94415
2023-02-24T12:38:02.302Z,94408
2023-02-24T12:39:11.972Z,94409
2023-02-24T12:40:21.628Z,94412
2023-02-24T12:41:30.419Z,94407
2023-02-24T12:42:40.079Z,94406
2023-02-24T12:43:49.749Z,94400
2023-02-24T12:44:58.502Z,94400
2023-02-24T12:46:08.163Z,94396
2023-02-24T12:47:15.863Z,94395
2023-02-24T12:48:25.570Z,94395
2023-02-24T12:49:35.253Z,94395
2023-02-24T12:50:44.922Z,94395
2023-02-24T12:51:54.743Z,94392
2023-02-24T12:53:05.060Z,94396
2023-02-24T12:54:14.744Z,94393
2023-02-24T12:55:24.435Z,94388
2023-02-24T12:56:31.149Z,94391
2023-02-24T12:57:39.820Z,94390
2023-02-24T12:58:47.544Z,94387
2023-02-24T12:59:58.206Z,94390
2023-02-24T13:01:06.968Z,94387
2023-02-24T13:02:16.572Z,94384
2023-02-24T13:03:26.299Z,94379
2023-02-24T13:04:35.991Z,94382
2023-02-24T13:05:45.660Z,94383
2023-02-24T13:06:55.354Z,94377
2023-02-24T13:08:04.091Z,94373
2023-02-24T13:09:12.756Z,94371
2023-02-24T13:10:22.440Z,94374
2023-02-24T13:11:32.145Z,94376
2023-02-24T13:12:41.865Z,94376
2023-02-24T13:13:50.561Z,94370
2023-02-24T13:15:00.272Z,94374
2023-02-24T13:16:08.937Z,94372
2023-02-24T13:17:17.721Z,94371
2023-02-24T13:18:27.334Z,94373
2023-02-24T13:19:37.051Z,94372
2023-02-24T13:20:46.731Z,94368
2023-02-24T13:21:56.439Z,94367
2023-02-24T13:23:06.145Z,94366
2023-02-24T13:24:15.925Z,94362
2023-02-24T13:25:25.567Z,94362
2023-02-24T13:26:34.252Z,94363
2023-02-24T13:27:43.978Z,94357
2023-02-24T13:28:52.678Z,94358
2023-02-24T13:30:01.385Z,94360
2023-02-24T13:31:10.176Z,94360
2023-02-24T13:32:18.987Z,94354
2023-02-24T13:33:28.534Z,94357
2023-02-24T13:34:37.252Z,94347
2023-02-24T13:35:46.906Z,94346
2023-02-24T13:36:56.632Z,94336
2023-02-24T13:38:05.351Z,94344
2023-02-24T13:39:14.011Z,94336
2023-02-24T13:40:23.954Z,94336
2023-02-24T13:41:32.423Z,94336
2023-02-24T13:42:41.212Z,94334
2023-02-24T13:43:50.953Z,94336
2023-02-24T13:45:00.632Z,94332
2023-02-24T13:46:10.362Z,94335
2023-02-24T13:47:20.079Z,94332
2023-02-24T13:48:29.798Z,94333
2023-02-24T13:49:39.531Z,94330
2023-02-24T13:50:49.222Z,94333
2023-02-24T13:51:58.944Z,94323
2023-02-24T13:53:06.636Z,94325
2023-02-24T13:54:16.333Z,94320
2023-02-24T13:55:26.069Z,94315
2023-02-24T13:56:35.760Z,94321
2023-02-24T13:57:45.479Z,94317
2023-02-24T13:58:55.160Z,94317
2023-02-24T14:00:03.820Z,94319
2023-02-24T14:01:13.611Z,94317
2023-02-24T14:02:22.341Z,94315
2023-02-24T14:03:31.970Z,94309
2023-02-24T14:04:41.739Z,94305
2023-02-24T14:05:50.446Z,94315
2023-02-24T14:07:00.309Z,94315
2023-02-24T14:08:09.063Z,94323
2023-02-24T14:09:18.791Z,94320
2023-02-24T14:10:28.470Z,94322
2023-02-24T14:11:36.191Z,94319
2023-02-24T14:12:45.903Z,94317
2023-02-24T14:13:55.629Z,94308
2023-02-24T14:15:04.425Z,94321
2023-02-24T14:16:14.343Z,94314
2023-02-24T14:17:22.808Z,94310
2023-02-24T14:18:31.495Z,94308
2023-02-24T14:19:41.191Z,94304
2023-02-24T14:20:50.864Z,94308
2023-02-24T14:21:59.553Z,94304
2023-02-24T14:23:09.259Z,94306
2023-02-24T14:24:17.944Z,94302
2023-02-24T14:25:26.638Z,94301
2023-02-24T14:26:36.337Z,94299
2023-02-24T14:27:46.075Z,94294
2023-02-24T14:28:55.755Z,94299
2023-02-24T14:30:03.457Z,94296
2023-02-24T14:31:12.330Z,94298
2023-02-24T14:32:22.066Z,94297
2023-02-24T14:33:29.665Z,94296
2023-02-24T14:34:39.348Z,94296
2023-02-24T14:35:49.097Z,94293
2023-02-24T14:36:58.779Z,94287
2023-02-24T14:38:08.643Z,94282
2023-02-24T14:39:16.345Z,94287
2023-02-24T14:40:25.053Z,94287
2023-02-24T14:41:34.759Z,94294
2023-02-24T14:42:43.504Z,94296
2023-02-24T14:43:52.307Z,94287
2023-02-24T14:45:01.997Z,94287
2023-02-24T14:46:10.793Z,94291
2023-02-24T14:47:20.534Z,94294
2023-02-24T14:48:30.520Z,94288
2023-02-24T14:49:39.153Z,94287
2023-02-24T14:50:48.891Z,94283
2023-02-24T14:51:58.629Z,94287